AZU11 SBRF-SBRJ
Flight info
| Callsign | AZU11 |
|---|---|
| Flight time | 2h 31m |
| Altitude | 40000 |
| Route | VARAB1A MUDSI UN857 IRUMI DCT UKARU UZ95 MCA SINAG1B |
| Aircraft | E190/M-SDE3GILORVW/S |
Departure
| Time | 2026-04-27 18:04 |
|---|---|
| Airport | Recife/Guararapes - Gilberto Freyre International Airport (SBRF) |
Arrival
| Time | 2026-04-27 20:36 |
|---|---|
| Airport | Santos Dumont Airport (SBRJ) |
| Time | Latitude | Longitude | Altitude | Speed | Heading |
|---|---|---|---|---|---|
| 2026-04-27 17:38 | -8.12722 | -34.92008 | 45 ft | 0 kts | 304° |
| 2026-04-27 17:55 | -8.12725 | -34.92004 | 45 ft | 2 kts | 304° |
| 2026-04-27 17:56 | -8.12732 | -34.91994 | 45 ft | 0 kts | 304° |
| 2026-04-27 17:56 | -8.12738 | -34.91983 | 46 ft | 2 kts | 276° |
| 2026-04-27 17:56 | -8.12736 | -34.91968 | 46 ft | 2 kts | 246° |
| 2026-04-27 17:56 | -8.12728 | -34.91957 | 46 ft | 0 kts | 218° |
| 2026-04-27 17:57 | -8.12723 | -34.91954 | 46 ft | 1 kts | 213° |
| 2026-04-27 17:57 | -8.12721 | -34.91953 | 46 ft | 0 kts | 213° |
| 2026-04-27 17:58 | -8.12722 | -34.91953 | 46 ft | 0 kts | 213° |
| 2026-04-27 17:58 | -8.12724 | -34.91955 | 46 ft | 0 kts | 213° |
| 2026-04-27 17:59 | -8.12738 | -34.91964 | 46 ft | 3 kts | 213° |
| 2026-04-27 17:59 | -8.12768 | -34.91984 | 45 ft | 6 kts | 213° |
| 2026-04-27 17:59 | -8.12810 | -34.92010 | 45 ft | 7 kts | 199° |
| 2026-04-27 17:59 | -8.12863 | -34.92028 | 45 ft | 8 kts | 213° |
| 2026-04-27 18:00 | -8.12883 | -34.92073 | 45 ft | 8 kts | 295° |
| 2026-04-27 18:00 | -8.12831 | -34.92105 | 45 ft | 9 kts | 341° |
| 2026-04-27 18:00 | -8.12759 | -34.92130 | 45 ft | 11 kts | 340° |
| 2026-04-27 18:00 | -8.12674 | -34.92159 | 45 ft | 13 kts | 342° |
| 2026-04-27 18:01 | -8.12577 | -34.92193 | 45 ft | 15 kts | 342° |
| 2026-04-27 18:01 | -8.12467 | -34.92228 | 45 ft | 17 kts | 342° |
| 2026-04-27 18:01 | -8.12335 | -34.92272 | 45 ft | 21 kts | 343° |
| 2026-04-27 18:01 | -8.12190 | -34.92319 | 45 ft | 22 kts | 341° |
| 2026-04-27 18:02 | -8.12042 | -34.92370 | 45 ft | 22 kts | 343° |
| 2026-04-27 18:02 | -8.11895 | -34.92417 | 45 ft | 22 kts | 345° |
| 2026-04-27 18:02 | -8.11744 | -34.92470 | 43 ft | 21 kts | 336° |
| 2026-04-27 18:02 | -8.11603 | -34.92521 | 42 ft | 21 kts | 326° |
| 2026-04-27 18:03 | -8.11494 | -34.92621 | 39 ft | 21 kts | 316° |
| 2026-04-27 18:03 | -8.11447 | -34.92677 | 38 ft | 7 kts | 265° |
| 2026-04-27 18:03 | -8.11483 | -34.92697 | 39 ft | 6 kts | 168° |
| 2026-04-27 18:03 | -8.11614 | -34.92654 | 41 ft | 49 kts | 161° |
| 2026-04-27 18:04 | -8.12150 | -34.92477 | 45 ft | 110 kts | 161° |
| 2026-04-27 18:04 | -8.13046 | -34.92180 | 63 ft | 156 kts | 161° |
| 2026-04-27 18:04 | -8.14125 | -34.91845 | 441 ft | 168 kts | 163° |
| 2026-04-27 18:04 | -8.15310 | -34.91662 | 1032 ft | 179 kts | 179° |
| 2026-04-27 18:05 | -8.16561 | -34.91801 | 1787 ft | 183 kts | 184° |
| 2026-04-27 18:05 | -8.17827 | -34.91951 | 2474 ft | 191 kts | 184° |
| 2026-04-27 18:05 | -8.19242 | -34.92110 | 2906 ft | 216 kts | 184° |
| 2026-04-27 18:05 | -8.20796 | -34.92284 | 3433 ft | 237 kts | 184° |
| 2026-04-27 18:06 | -8.22541 | -34.92476 | 3925 ft | 260 kts | 184° |
| 2026-04-27 18:06 | -8.24368 | -34.92677 | 4628 ft | 272 kts | 184° |
| 2026-04-27 18:06 | -8.26276 | -34.92886 | 5502 ft | 277 kts | 184° |
| 2026-04-27 18:06 | -8.28183 | -34.93093 | 6406 ft | 279 kts | 184° |
| 2026-04-27 18:07 | -8.30136 | -34.93305 | 7270 ft | 282 kts | 183° |
| 2026-04-27 18:07 | -8.32062 | -34.93514 | 7852 ft | 285 kts | 184° |
| 2026-04-27 18:07 | -8.34062 | -34.93731 | 7908 ft | 287 kts | 184° |
| 2026-04-27 18:07 | -8.36059 | -34.93948 | 7930 ft | 289 kts | 184° |
| 2026-04-27 18:08 | -8.38080 | -34.94168 | 8008 ft | 301 kts | 184° |
| 2026-04-27 18:08 | -8.40213 | -34.94399 | 8718 ft | 308 kts | 184° |
| 2026-04-27 18:08 | -8.42307 | -34.94627 | 9677 ft | 304 kts | 184° |
| 2026-04-27 18:08 | -8.44380 | -34.94855 | 10582 ft | 300 kts | 185° |
| 2026-04-27 18:09 | -8.46491 | -34.95134 | 11239 ft | 307 kts | 185° |
| 2026-04-27 18:09 | -8.48648 | -34.95422 | 11733 ft | 318 kts | 185° |
| 2026-04-27 18:09 | -8.50887 | -34.95721 | 12191 ft | 331 kts | 186° |
| 2026-04-27 18:09 | -8.53197 | -34.96030 | 12750 ft | 338 kts | 186° |
| 2026-04-27 18:10 | -8.55568 | -34.96348 | 13411 ft | 342 kts | 185° |
| 2026-04-27 18:10 | -8.57907 | -34.96662 | 14104 ft | 344 kts | 186° |
| 2026-04-27 18:10 | -8.60293 | -34.96981 | 14783 ft | 346 kts | 185° |
| 2026-04-27 18:10 | -8.62699 | -34.97304 | 15423 ft | 349 kts | 185° |
| 2026-04-27 18:11 | -8.65130 | -34.97630 | 16033 ft | 352 kts | 185° |
| 2026-04-27 18:11 | -8.67557 | -34.97955 | 16615 ft | 356 kts | 185° |
| 2026-04-27 18:11 | -8.70043 | -34.98288 | 17190 ft | 359 kts | 185° |
| 2026-04-27 18:11 | -8.72548 | -34.98623 | 17760 ft | 363 kts | 185° |
| 2026-04-27 18:12 | -8.75043 | -34.98958 | 18317 ft | 366 kts | 184° |
| 2026-04-27 18:12 | -8.77589 | -34.99299 | 18891 ft | 368 kts | 184° |
| 2026-04-27 18:12 | -8.80126 | -34.99639 | 19442 ft | 371 kts | 184° |
| 2026-04-27 18:12 | -8.82714 | -34.99986 | 19979 ft | 373 kts | 184° |
| 2026-04-27 18:13 | -8.85297 | -35.00333 | 20491 ft | 377 kts | 183° |
| 2026-04-27 18:13 | -8.87931 | -35.00686 | 20975 ft | 380 kts | 183° |
| 2026-04-27 18:13 | -8.90565 | -35.01039 | 21452 ft | 384 kts | 183° |
| 2026-04-27 18:13 | -8.93214 | -35.01395 | 21910 ft | 387 kts | 182° |
| 2026-04-27 18:14 | -8.95925 | -35.01759 | 22392 ft | 390 kts | 182° |
| 2026-04-27 18:14 | -8.98612 | -35.02119 | 22885 ft | 392 kts | 182° |
| 2026-04-27 18:14 | -9.01353 | -35.02486 | 23366 ft | 394 kts | 183° |
| 2026-04-27 18:14 | -9.04063 | -35.02853 | 23834 ft | 396 kts | 184° |
| 2026-04-27 18:15 | -9.06733 | -35.03743 | 24239 ft | 409 kts | 204° |
| 2026-04-27 18:15 | -9.09203 | -35.05143 | 24696 ft | 412 kts | 206° |
| 2026-04-27 18:15 | -9.11720 | -35.06595 | 25140 ft | 414 kts | 206° |
| 2026-04-27 18:15 | -9.14215 | -35.08036 | 25556 ft | 416 kts | 206° |
| 2026-04-27 18:16 | -9.16757 | -35.09505 | 25983 ft | 418 kts | 206° |
| 2026-04-27 18:16 | -9.19277 | -35.10962 | 26389 ft | 420 kts | 207° |
| 2026-04-27 18:16 | -9.21822 | -35.12434 | 26772 ft | 423 kts | 207° |
| 2026-04-27 18:16 | -9.24409 | -35.13930 | 27164 ft | 425 kts | 207° |
| 2026-04-27 18:17 | -9.26975 | -35.15415 | 27539 ft | 427 kts | 207° |
| 2026-04-27 18:17 | -9.29552 | -35.16905 | 27907 ft | 429 kts | 207° |
| 2026-04-27 18:17 | -9.32183 | -35.18428 | 28269 ft | 432 kts | 207° |
| 2026-04-27 18:17 | -9.34784 | -35.19934 | 28620 ft | 434 kts | 207° |
| 2026-04-27 18:18 | -9.37412 | -35.21455 | 28981 ft | 436 kts | 207° |
| 2026-04-27 18:18 | -9.40084 | -35.23002 | 29335 ft | 439 kts | 208° |
| 2026-04-27 18:18 | -9.42734 | -35.24537 | 29691 ft | 441 kts | 208° |
| 2026-04-27 18:18 | -9.45396 | -35.26078 | 30029 ft | 443 kts | 208° |
| 2026-04-27 18:19 | -9.48074 | -35.27629 | 30362 ft | 445 kts | 208° |
| 2026-04-27 18:19 | -9.50773 | -35.29194 | 30687 ft | 448 kts | 208° |
| 2026-04-27 18:19 | -9.53485 | -35.30765 | 31014 ft | 450 kts | 208° |
| 2026-04-27 18:19 | -9.56241 | -35.32362 | 31332 ft | 452 kts | 208° |
| 2026-04-27 18:20 | -9.58971 | -35.33945 | 31675 ft | 453 kts | 208° |
| 2026-04-27 18:20 | -9.61691 | -35.35522 | 32096 ft | 452 kts | 209° |
| 2026-04-27 18:20 | -9.64446 | -35.37120 | 32554 ft | 451 kts | 209° |
| 2026-04-27 18:20 | -9.67143 | -35.38685 | 33045 ft | 448 kts | 209° |
| 2026-04-27 18:21 | -9.69870 | -35.40267 | 33546 ft | 447 kts | 209° |
| 2026-04-27 18:21 | -9.72557 | -35.41826 | 33977 ft | 446 kts | 209° |
| 2026-04-27 18:21 | -9.75240 | -35.43383 | 34399 ft | 446 kts | 209° |
| 2026-04-27 18:21 | -9.77945 | -35.44953 | 34809 ft | 445 kts | 209° |
| 2026-04-27 18:22 | -9.80620 | -35.46507 | 35215 ft | 445 kts | 209° |
| 2026-04-27 18:22 | -9.83349 | -35.48091 | 35631 ft | 444 kts | 209° |
| 2026-04-27 18:22 | -9.86043 | -35.49656 | 36029 ft | 444 kts | 209° |
| 2026-04-27 18:22 | -9.88765 | -35.51237 | 36424 ft | 443 kts | 209° |
| 2026-04-27 18:23 | -9.91503 | -35.52828 | 36826 ft | 443 kts | 209° |
| 2026-04-27 18:23 | -9.94231 | -35.54414 | 37195 ft | 442 kts | 209° |
| 2026-04-27 18:23 | -9.96912 | -35.55972 | 37539 ft | 442 kts | 209° |
| 2026-04-27 18:23 | -9.99621 | -35.57547 | 37877 ft | 442 kts | 209° |
| 2026-04-27 18:24 | -10.02347 | -35.59132 | 38235 ft | 442 kts | 208° |
| 2026-04-27 18:24 | -10.05018 | -35.60686 | 38566 ft | 441 kts | 208° |
| 2026-04-27 18:24 | -10.07695 | -35.62242 | 38889 ft | 442 kts | 208° |
| 2026-04-27 18:24 | -10.10387 | -35.63809 | 39252 ft | 441 kts | 208° |
| 2026-04-27 18:25 | -10.13047 | -35.65356 | 39610 ft | 440 kts | 209° |
| 2026-04-27 18:25 | -10.15712 | -35.66908 | 39928 ft | 437 kts | 209° |
| 2026-04-27 18:25 | -10.21039 | -35.70009 | 39949 ft | 445 kts | 209° |
| 2026-04-27 18:26 | -10.26507 | -35.73194 | 39948 ft | 455 kts | 209° |
| 2026-04-27 18:26 | -10.32081 | -35.76442 | 39946 ft | 465 kts | 209° |
| 2026-04-27 18:27 | -10.37657 | -35.79693 | 39938 ft | 467 kts | 209° |
| 2026-04-27 18:27 | -10.43278 | -35.82971 | 39934 ft | 464 kts | 209° |
| 2026-04-27 18:28 | -10.48898 | -35.86250 | 39938 ft | 465 kts | 209° |
| 2026-04-27 18:28 | -10.54515 | -35.89528 | 39938 ft | 466 kts | 209° |
| 2026-04-27 18:29 | -10.60158 | -35.92823 | 39939 ft | 466 kts | 209° |
| 2026-04-27 18:29 | -10.65805 | -35.96122 | 39939 ft | 466 kts | 209° |
| 2026-04-27 18:30 | -10.71451 | -35.99422 | 39941 ft | 466 kts | 209° |
| 2026-04-27 18:30 | -10.77107 | -36.02729 | 39947 ft | 466 kts | 209° |
| 2026-04-27 18:31 | -10.82734 | -36.06020 | 39941 ft | 467 kts | 209° |
| 2026-04-27 18:31 | -10.88381 | -36.09325 | 39951 ft | 468 kts | 209° |
| 2026-04-27 18:32 | -10.94054 | -36.12646 | 39948 ft | 467 kts | 209° |
| 2026-04-27 18:32 | -10.99704 | -36.15955 | 39947 ft | 466 kts | 209° |
| 2026-04-27 18:33 | -11.05344 | -36.19260 | 39944 ft | 465 kts | 210° |
| 2026-04-27 18:33 | -11.10986 | -36.22568 | 39946 ft | 466 kts | 210° |
| 2026-04-27 18:34 | -11.16685 | -36.25676 | 39951 ft | 466 kts | 206° |
| 2026-04-27 18:34 | -11.22469 | -36.28698 | 39945 ft | 467 kts | 207° |
| 2026-04-27 18:35 | -11.28267 | -36.31736 | 39947 ft | 466 kts | 207° |
| 2026-04-27 18:35 | -11.34022 | -36.34753 | 39947 ft | 465 kts | 207° |
| 2026-04-27 18:36 | -11.39784 | -36.37775 | 39946 ft | 465 kts | 207° |
| 2026-04-27 18:36 | -11.45593 | -36.40823 | 39947 ft | 465 kts | 207° |
| 2026-04-27 18:37 | -11.51341 | -36.43841 | 39948 ft | 464 kts | 207° |
| 2026-04-27 18:37 | -11.57098 | -36.46865 | 39944 ft | 465 kts | 207° |
| 2026-04-27 18:38 | -11.62853 | -36.49889 | 39946 ft | 464 kts | 207° |
| 2026-04-27 18:38 | -11.68626 | -36.52924 | 39949 ft | 464 kts | 207° |
| 2026-04-27 18:39 | -11.74349 | -36.55934 | 39946 ft | 464 kts | 207° |
| 2026-04-27 18:39 | -11.80137 | -36.58980 | 39949 ft | 465 kts | 207° |
| 2026-04-27 18:40 | -11.85879 | -36.62003 | 39952 ft | 463 kts | 207° |
| 2026-04-27 18:40 | -11.91612 | -36.65023 | 39955 ft | 463 kts | 207° |
| 2026-04-27 18:41 | -11.97364 | -36.68054 | 39959 ft | 463 kts | 207° |
| 2026-04-27 18:41 | -12.03086 | -36.71071 | 39967 ft | 463 kts | 207° |
| 2026-04-27 18:42 | -12.07898 | -36.73609 | 39967 ft | 463 kts | 207° |
| 2026-04-27 18:42 | -12.14581 | -36.77136 | 39966 ft | 464 kts | 207° |
| 2026-04-27 18:43 | -12.20307 | -36.80159 | 39966 ft | 463 kts | 207° |
| 2026-04-27 18:43 | -12.26084 | -36.83211 | 39965 ft | 463 kts | 207° |
| 2026-04-27 18:44 | -12.31799 | -36.86232 | 39967 ft | 463 kts | 207° |
| 2026-04-27 18:44 | -12.37558 | -36.89276 | 39966 ft | 463 kts | 207° |
| 2026-04-27 18:45 | -12.43287 | -36.92308 | 39966 ft | 463 kts | 207° |
| 2026-04-27 18:45 | -12.49048 | -36.95358 | 39966 ft | 465 kts | 207° |
| 2026-04-27 18:46 | -12.54814 | -36.98411 | 39966 ft | 464 kts | 207° |
| 2026-04-27 18:46 | -12.60550 | -37.01450 | 39966 ft | 463 kts | 207° |
| 2026-04-27 18:47 | -12.66279 | -37.04488 | 39966 ft | 463 kts | 206° |
| 2026-04-27 18:47 | -12.72037 | -37.07542 | 39967 ft | 463 kts | 206° |
| 2026-04-27 18:48 | -12.77760 | -37.10578 | 39967 ft | 464 kts | 207° |
| 2026-04-27 18:48 | -12.82494 | -37.13092 | 39967 ft | 464 kts | 207° |
| 2026-04-27 18:49 | -12.88197 | -37.16121 | 39968 ft | 462 kts | 207° |
| 2026-04-27 18:49 | -12.93958 | -37.19183 | 39968 ft | 462 kts | 207° |
| 2026-04-27 18:50 | -12.99657 | -37.22214 | 39969 ft | 462 kts | 207° |
| 2026-04-27 18:50 | -13.05381 | -37.25259 | 39971 ft | 463 kts | 207° |
| 2026-04-27 18:51 | -13.11145 | -37.28327 | 39970 ft | 463 kts | 207° |
| 2026-04-27 18:51 | -13.16876 | -37.31379 | 39969 ft | 462 kts | 207° |
| 2026-04-27 18:52 | -13.22595 | -37.34427 | 39973 ft | 462 kts | 207° |
| 2026-04-27 18:53 | -13.31159 | -37.38994 | 39974 ft | 461 kts | 207° |
| 2026-04-27 18:53 | -13.36878 | -37.42045 | 39975 ft | 462 kts | 207° |
| 2026-04-27 18:54 | -13.42641 | -37.45122 | 39978 ft | 462 kts | 207° |
| 2026-04-27 18:54 | -13.48315 | -37.48152 | 39979 ft | 462 kts | 207° |
| 2026-04-27 18:55 | -13.54060 | -37.51223 | 39982 ft | 461 kts | 207° |
| 2026-04-27 18:55 | -13.59772 | -37.54278 | 39978 ft | 461 kts | 207° |
| 2026-04-27 18:56 | -13.65477 | -37.57330 | 39983 ft | 460 kts | 207° |
| 2026-04-27 18:56 | -13.71153 | -37.60369 | 39984 ft | 459 kts | 207° |
| 2026-04-27 18:57 | -13.76873 | -37.63433 | 39983 ft | 460 kts | 207° |
| 2026-04-27 18:57 | -13.82545 | -37.66472 | 39986 ft | 460 kts | 208° |
| 2026-04-27 18:58 | -13.88244 | -37.69528 | 39989 ft | 460 kts | 208° |
| 2026-04-27 18:58 | -13.93913 | -37.72570 | 39990 ft | 460 kts | 208° |
| 2026-04-27 18:59 | -13.99604 | -37.75625 | 39989 ft | 459 kts | 208° |
| 2026-04-27 18:59 | -14.05315 | -37.78692 | 39988 ft | 459 kts | 208° |
| 2026-04-27 19:00 | -14.10954 | -37.81723 | 39988 ft | 458 kts | 208° |
| 2026-04-27 19:00 | -14.16654 | -37.84788 | 39987 ft | 458 kts | 208° |
| 2026-04-27 19:01 | -14.22331 | -37.87843 | 39987 ft | 459 kts | 208° |
| 2026-04-27 19:01 | -14.28015 | -37.90902 | 39987 ft | 459 kts | 208° |
| 2026-04-27 19:02 | -14.33700 | -37.93964 | 39987 ft | 459 kts | 208° |
| 2026-04-27 19:02 | -14.39353 | -37.97012 | 39988 ft | 458 kts | 208° |
| 2026-04-27 19:03 | -14.45027 | -38.00071 | 39986 ft | 458 kts | 208° |
| 2026-04-27 19:03 | -14.50720 | -38.03143 | 39986 ft | 458 kts | 208° |
| 2026-04-27 19:04 | -14.56400 | -38.06210 | 39988 ft | 459 kts | 208° |
| 2026-04-27 19:04 | -14.62045 | -38.09259 | 39987 ft | 458 kts | 208° |
| 2026-04-27 19:05 | -14.67727 | -38.12331 | 39987 ft | 459 kts | 208° |
| 2026-04-27 19:05 | -14.73392 | -38.15395 | 39988 ft | 459 kts | 208° |
| 2026-04-27 19:06 | -14.79035 | -38.18449 | 39988 ft | 458 kts | 208° |
| 2026-04-27 19:06 | -14.84713 | -38.21523 | 39988 ft | 458 kts | 208° |
| 2026-04-27 19:07 | -14.90350 | -38.24577 | 39988 ft | 458 kts | 208° |
| 2026-04-27 19:07 | -14.96032 | -38.27658 | 39988 ft | 458 kts | 208° |
| 2026-04-27 19:08 | -15.01786 | -38.30534 | 39992 ft | 459 kts | 199° |
| 2026-04-27 19:08 | -15.08047 | -38.32017 | 39990 ft | 459 kts | 192° |
| 2026-04-27 19:09 | -15.14344 | -38.33325 | 39987 ft | 459 kts | 192° |
| 2026-04-27 19:09 | -15.20635 | -38.34641 | 39986 ft | 460 kts | 192° |
| 2026-04-27 19:10 | -15.26896 | -38.35952 | 39985 ft | 460 kts | 192° |
| 2026-04-27 19:10 | -15.33203 | -38.37273 | 39984 ft | 460 kts | 192° |
| 2026-04-27 19:11 | -15.39500 | -38.38593 | 39985 ft | 460 kts | 192° |
| 2026-04-27 19:11 | -15.45707 | -38.40228 | 39993 ft | 457 kts | 203° |
| 2026-04-27 19:12 | -15.51705 | -38.42454 | 39998 ft | 459 kts | 192° |
| 2026-04-27 19:12 | -15.58117 | -38.42833 | 39995 ft | 461 kts | 184° |
| 2026-04-27 19:13 | -15.64446 | -38.43845 | 39987 ft | 460 kts | 192° |
| 2026-04-27 19:13 | -15.70758 | -38.45157 | 39985 ft | 459 kts | 192° |
| 2026-04-27 19:14 | -15.77040 | -38.46478 | 39987 ft | 460 kts | 192° |
| 2026-04-27 19:14 | -15.83331 | -38.47802 | 39987 ft | 459 kts | 192° |
| 2026-04-27 19:15 | -15.89588 | -38.49120 | 39990 ft | 459 kts | 192° |
| 2026-04-27 19:15 | -15.95885 | -38.50447 | 39987 ft | 459 kts | 192° |
| 2026-04-27 19:16 | -16.02181 | -38.51775 | 39990 ft | 459 kts | 192° |
| 2026-04-27 19:16 | -16.08451 | -38.53098 | 39985 ft | 459 kts | 193° |
| 2026-04-27 19:17 | -16.14712 | -38.54421 | 39988 ft | 459 kts | 192° |
| 2026-04-27 19:17 | -16.20978 | -38.55745 | 39989 ft | 459 kts | 193° |
| 2026-04-27 19:18 | -16.27245 | -38.57070 | 39983 ft | 459 kts | 193° |
| 2026-04-27 19:18 | -16.33516 | -38.58396 | 39985 ft | 459 kts | 192° |
| 2026-04-27 19:19 | -16.39792 | -38.59725 | 39985 ft | 458 kts | 192° |
| 2026-04-27 19:19 | -16.46065 | -38.61055 | 39978 ft | 459 kts | 193° |
| 2026-04-27 19:20 | -16.52341 | -38.62385 | 39981 ft | 459 kts | 192° |
| 2026-04-27 19:20 | -16.58613 | -38.63715 | 39982 ft | 459 kts | 193° |
| 2026-04-27 19:21 | -16.64927 | -38.65056 | 39978 ft | 459 kts | 193° |
| 2026-04-27 19:21 | -16.71184 | -38.66385 | 39988 ft | 459 kts | 193° |
| 2026-04-27 19:22 | -16.77452 | -38.67717 | 39982 ft | 458 kts | 193° |
| 2026-04-27 19:22 | -16.83697 | -38.69046 | 39986 ft | 458 kts | 193° |
| 2026-04-27 19:23 | -16.89999 | -38.70387 | 39982 ft | 458 kts | 193° |
| 2026-04-27 19:23 | -16.96231 | -38.71714 | 39977 ft | 458 kts | 193° |
| 2026-04-27 19:24 | -17.02539 | -38.73059 | 39979 ft | 458 kts | 193° |
| 2026-04-27 19:24 | -17.08801 | -38.74395 | 39979 ft | 459 kts | 193° |
| 2026-04-27 19:25 | -17.15079 | -38.75735 | 39975 ft | 459 kts | 193° |
| 2026-04-27 19:25 | -17.21345 | -38.77073 | 39976 ft | 459 kts | 193° |
| 2026-04-27 19:26 | -17.27609 | -38.78412 | 39980 ft | 459 kts | 193° |
| 2026-04-27 19:26 | -17.33887 | -38.79755 | 39987 ft | 458 kts | 193° |
| 2026-04-27 19:27 | -17.40142 | -38.81094 | 39989 ft | 459 kts | 193° |
| 2026-04-27 19:27 | -17.46435 | -38.82441 | 39990 ft | 459 kts | 193° |
| 2026-04-27 19:28 | -17.52697 | -38.83783 | 39989 ft | 460 kts | 193° |
| 2026-04-27 19:28 | -17.58973 | -38.85130 | 39990 ft | 459 kts | 193° |
| 2026-04-27 19:29 | -17.65267 | -38.86480 | 39988 ft | 460 kts | 193° |
| 2026-04-27 19:29 | -17.71544 | -38.87829 | 39991 ft | 459 kts | 193° |
| 2026-04-27 19:30 | -17.77845 | -38.89183 | 39990 ft | 460 kts | 193° |
| 2026-04-27 19:30 | -17.84118 | -38.90532 | 39991 ft | 462 kts | 193° |
| 2026-04-27 19:31 | -17.90405 | -38.91886 | 39989 ft | 461 kts | 193° |
| 2026-04-27 19:31 | -17.96695 | -38.93241 | 39988 ft | 461 kts | 193° |
| 2026-04-27 19:32 | -18.02990 | -38.94597 | 39989 ft | 461 kts | 193° |
| 2026-04-27 19:32 | -18.09291 | -38.95956 | 39989 ft | 460 kts | 193° |
| 2026-04-27 19:33 | -18.15612 | -38.97321 | 39987 ft | 461 kts | 193° |
| 2026-04-27 19:33 | -18.21915 | -38.98683 | 39983 ft | 462 kts | 193° |
| 2026-04-27 19:34 | -18.28243 | -39.00051 | 39985 ft | 462 kts | 193° |
| 2026-04-27 19:34 | -18.34550 | -39.01416 | 39985 ft | 461 kts | 193° |
| 2026-04-27 19:35 | -18.40857 | -39.02781 | 39985 ft | 461 kts | 193° |
| 2026-04-27 19:35 | -18.47159 | -39.04147 | 39987 ft | 461 kts | 193° |
| 2026-04-27 19:36 | -18.53463 | -39.05513 | 39986 ft | 462 kts | 193° |
| 2026-04-27 19:36 | -18.59756 | -39.06879 | 39984 ft | 462 kts | 193° |
| 2026-04-27 19:37 | -18.66087 | -39.08254 | 39978 ft | 463 kts | 193° |
| 2026-04-27 19:37 | -18.72418 | -39.09630 | 39988 ft | 462 kts | 193° |
| 2026-04-27 19:38 | -18.78749 | -39.11007 | 39983 ft | 463 kts | 193° |
| 2026-04-27 19:38 | -18.85042 | -39.12377 | 39985 ft | 463 kts | 193° |
| 2026-04-27 19:39 | -18.91377 | -39.13757 | 39986 ft | 463 kts | 193° |
| 2026-04-27 19:39 | -18.97729 | -39.15142 | 39977 ft | 463 kts | 193° |
| 2026-04-27 19:40 | -19.04057 | -39.16522 | 39980 ft | 463 kts | 193° |
| 2026-04-27 19:40 | -19.10373 | -39.17901 | 39980 ft | 464 kts | 193° |
| 2026-04-27 19:41 | -19.16707 | -39.19285 | 39978 ft | 464 kts | 193° |
| 2026-04-27 19:41 | -19.23069 | -39.20677 | 39977 ft | 464 kts | 193° |
| 2026-04-27 19:42 | -19.29400 | -39.22062 | 39977 ft | 463 kts | 193° |
| 2026-04-27 19:42 | -19.35723 | -39.23447 | 39976 ft | 463 kts | 193° |
| 2026-04-27 19:43 | -19.42042 | -39.24833 | 39977 ft | 463 kts | 193° |
| 2026-04-27 19:43 | -19.48366 | -39.26220 | 39973 ft | 464 kts | 194° |
| 2026-04-27 19:44 | -19.54677 | -39.27605 | 39976 ft | 464 kts | 194° |
| 2026-04-27 19:44 | -19.61027 | -39.29001 | 39966 ft | 463 kts | 194° |
| 2026-04-27 19:45 | -19.67345 | -39.30390 | 39967 ft | 463 kts | 194° |
| 2026-04-27 19:45 | -19.73702 | -39.31789 | 39969 ft | 463 kts | 194° |
| 2026-04-27 19:46 | -19.80040 | -39.33185 | 39969 ft | 463 kts | 194° |
| 2026-04-27 19:46 | -19.86356 | -39.34578 | 39970 ft | 464 kts | 194° |
| 2026-04-27 19:47 | -19.92676 | -39.35972 | 39967 ft | 463 kts | 194° |
| 2026-04-27 19:47 | -19.99016 | -39.37428 | 39962 ft | 462 kts | 199° |
| 2026-04-27 19:48 | -20.04755 | -39.40313 | 39977 ft | 454 kts | 218° |
| 2026-04-27 19:48 | -20.09284 | -39.44888 | 39974 ft | 448 kts | 236° |
| 2026-04-27 19:49 | -20.12219 | -39.50637 | 39970 ft | 445 kts | 244° |
| 2026-04-27 19:49 | -20.15783 | -39.56088 | 39962 ft | 448 kts | 235° |
| 2026-04-27 19:50 | -20.19561 | -39.61303 | 39962 ft | 448 kts | 235° |
| 2026-04-27 19:50 | -20.23371 | -39.66542 | 39968 ft | 447 kts | 235° |
| 2026-04-27 19:51 | -20.27194 | -39.71804 | 39961 ft | 447 kts | 235° |
| 2026-04-27 19:51 | -20.30990 | -39.77032 | 39958 ft | 447 kts | 235° |
| 2026-04-27 19:52 | -20.34794 | -39.82275 | 39950 ft | 447 kts | 235° |
| 2026-04-27 19:52 | -20.38608 | -39.87537 | 39951 ft | 447 kts | 235° |
| 2026-04-27 19:53 | -20.44297 | -39.95394 | 39947 ft | 447 kts | 235° |
| 2026-04-27 19:53 | -20.48081 | -40.00628 | 39946 ft | 447 kts | 235° |
| 2026-04-27 19:54 | -20.51883 | -40.05889 | 39946 ft | 447 kts | 235° |
| 2026-04-27 19:54 | -20.55651 | -40.11109 | 39947 ft | 446 kts | 235° |
| 2026-04-27 19:55 | -20.59438 | -40.16361 | 39948 ft | 446 kts | 235° |
| 2026-04-27 19:55 | -20.63237 | -40.21632 | 39947 ft | 446 kts | 235° |
| 2026-04-27 19:56 | -20.66993 | -40.26851 | 39948 ft | 446 kts | 236° |
| 2026-04-27 19:56 | -20.70794 | -40.32136 | 39946 ft | 445 kts | 236° |
| 2026-04-27 19:57 | -20.74551 | -40.37365 | 39944 ft | 445 kts | 236° |
| 2026-04-27 19:57 | -20.78307 | -40.42596 | 39944 ft | 445 kts | 236° |
| 2026-04-27 19:58 | -20.82086 | -40.47864 | 39944 ft | 445 kts | 236° |
| 2026-04-27 19:58 | -20.85840 | -40.53103 | 39948 ft | 446 kts | 235° |
| 2026-04-27 19:59 | -20.89602 | -40.58358 | 39951 ft | 445 kts | 236° |
| 2026-04-27 19:59 | -20.93371 | -40.63627 | 39939 ft | 444 kts | 236° |
| 2026-04-27 20:00 | -20.97106 | -40.68854 | 39944 ft | 444 kts | 236° |
| 2026-04-27 20:00 | -21.00874 | -40.74133 | 39932 ft | 444 kts | 236° |
| 2026-04-27 20:01 | -21.04604 | -40.79363 | 39933 ft | 444 kts | 236° |
| 2026-04-27 20:01 | -21.08352 | -40.84622 | 39933 ft | 444 kts | 236° |
| 2026-04-27 20:02 | -21.12066 | -40.89840 | 39929 ft | 443 kts | 236° |
| 2026-04-27 20:02 | -21.15817 | -40.95113 | 39930 ft | 443 kts | 236° |
| 2026-04-27 20:03 | -21.19531 | -41.00339 | 39928 ft | 443 kts | 236° |
| 2026-04-27 20:03 | -21.23281 | -41.05622 | 39928 ft | 443 kts | 236° |
| 2026-04-27 20:04 | -21.26996 | -41.10860 | 39929 ft | 442 kts | 236° |
| 2026-04-27 20:04 | -21.30729 | -41.16128 | 39930 ft | 442 kts | 236° |
| 2026-04-27 20:05 | -21.33395 | -41.19893 | 39934 ft | 441 kts | 236° |
| 2026-04-27 20:05 | -21.37093 | -41.25115 | 39932 ft | 441 kts | 234° |
| 2026-04-27 20:06 | -21.41685 | -41.29588 | 39943 ft | 450 kts | 216° |
| 2026-04-27 20:06 | -21.47382 | -41.32542 | 39940 ft | 456 kts | 208° |
| 2026-04-27 20:07 | -21.53122 | -41.35398 | 39937 ft | 454 kts | 209° |
| 2026-04-27 20:07 | -21.58825 | -41.38296 | 39936 ft | 454 kts | 209° |
| 2026-04-27 20:08 | -21.64560 | -41.41216 | 39942 ft | 453 kts | 209° |
| 2026-04-27 20:08 | -21.70244 | -41.44103 | 39931 ft | 441 kts | 209° |
| 2026-04-27 20:09 | -21.73004 | -41.45506 | 39897 ft | 430 kts | 209° |
| 2026-04-27 20:09 | -21.75661 | -41.46856 | 39726 ft | 414 kts | 210° |
| 2026-04-27 20:09 | -21.78207 | -41.48151 | 39460 ft | 401 kts | 210° |
| 2026-04-27 20:09 | -21.80716 | -41.49428 | 39114 ft | 389 kts | 210° |
| 2026-04-27 20:10 | -21.83150 | -41.50668 | 38712 ft | 380 kts | 210° |
| 2026-04-27 20:10 | -21.85530 | -41.51880 | 38279 ft | 372 kts | 210° |
| 2026-04-27 20:10 | -21.87839 | -41.53057 | 37822 ft | 366 kts | 210° |
| 2026-04-27 20:10 | -21.90132 | -41.54226 | 37330 ft | 360 kts | 210° |
| 2026-04-27 20:11 | -21.92382 | -41.55373 | 36823 ft | 355 kts | 211° |
| 2026-04-27 20:11 | -21.94576 | -41.56492 | 36312 ft | 351 kts | 211° |
| 2026-04-27 20:11 | -21.96773 | -41.57613 | 35790 ft | 347 kts | 211° |
| 2026-04-27 20:11 | -21.98958 | -41.58729 | 35256 ft | 344 kts | 211° |
| 2026-04-27 20:12 | -22.01099 | -41.59822 | 34725 ft | 341 kts | 211° |
| 2026-04-27 20:12 | -22.03240 | -41.60916 | 34184 ft | 338 kts | 211° |
| 2026-04-27 20:12 | -22.05370 | -41.62004 | 33641 ft | 336 kts | 211° |
| 2026-04-27 20:12 | -22.07467 | -41.63076 | 33102 ft | 333 kts | 211° |
| 2026-04-27 20:13 | -22.09569 | -41.64151 | 32600 ft | 331 kts | 211° |
| 2026-04-27 20:13 | -22.11646 | -41.65213 | 32110 ft | 329 kts | 211° |
| 2026-04-27 20:13 | -22.13705 | -41.66266 | 31638 ft | 327 kts | 211° |
| 2026-04-27 20:13 | -22.15756 | -41.67315 | 31172 ft | 325 kts | 211° |
| 2026-04-27 20:14 | -22.17816 | -41.68369 | 30711 ft | 322 kts | 211° |
| 2026-04-27 20:14 | -22.19810 | -41.69390 | 30264 ft | 320 kts | 211° |
| 2026-04-27 20:14 | -22.21845 | -41.70426 | 29873 ft | 325 kts | 211° |
| 2026-04-27 20:14 | -22.23919 | -41.71432 | 30253 ft | 325 kts | 209° |
| 2026-04-27 20:15 | -22.25924 | -41.72292 | 31364 ft | 300 kts | 206° |
| 2026-04-27 20:15 | -22.27857 | -41.72988 | 31879 ft | 297 kts | 206° |
| 2026-04-27 20:15 | -22.29865 | -41.73996 | 30863 ft | 338 kts | 219° |
| 2026-04-27 20:15 | -22.31952 | -41.75413 | 29933 ft | 381 kts | 217° |
| 2026-04-27 20:16 | -22.34173 | -41.77180 | 28809 ft | 419 kts | 227° |
| 2026-04-27 20:16 | -22.36249 | -41.79550 | 27562 ft | 438 kts | 236° |
| 2026-04-27 20:16 | -22.37987 | -41.82161 | 26944 ft | 425 kts | 238° |
| 2026-04-27 20:16 | -22.39684 | -41.84718 | 26366 ft | 413 kts | 238° |
| 2026-04-27 20:17 | -22.41341 | -41.87205 | 25821 ft | 402 kts | 238° |
| 2026-04-27 20:17 | -22.42952 | -41.89620 | 25305 ft | 397 kts | 238° |
| 2026-04-27 20:17 | -22.44576 | -41.92058 | 24781 ft | 397 kts | 238° |
| 2026-04-27 20:17 | -22.46176 | -41.94457 | 24260 ft | 397 kts | 238° |
| 2026-04-27 20:18 | -22.47801 | -41.96896 | 23728 ft | 394 kts | 238° |
| 2026-04-27 20:18 | -22.49387 | -41.99276 | 23212 ft | 391 kts | 238° |
| 2026-04-27 20:18 | -22.50975 | -42.01662 | 22693 ft | 388 kts | 238° |
| 2026-04-27 20:18 | -22.52535 | -42.04006 | 22192 ft | 384 kts | 238° |
| 2026-04-27 20:19 | -22.54088 | -42.06341 | 21696 ft | 382 kts | 238° |
| 2026-04-27 20:19 | -22.55629 | -42.08659 | 21198 ft | 379 kts | 238° |
| 2026-04-27 20:19 | -22.57174 | -42.10982 | 20683 ft | 376 kts | 237° |
| 2026-04-27 20:19 | -22.58681 | -42.13251 | 20199 ft | 374 kts | 237° |
| 2026-04-27 20:20 | -22.60192 | -42.15526 | 19705 ft | 371 kts | 237° |
| 2026-04-27 20:20 | -22.61689 | -42.17782 | 19203 ft | 369 kts | 237° |
| 2026-04-27 20:20 | -22.63181 | -42.20031 | 18731 ft | 368 kts | 237° |
| 2026-04-27 20:20 | -22.64685 | -42.22299 | 18229 ft | 366 kts | 237° |
| 2026-04-27 20:21 | -22.66142 | -42.24497 | 17751 ft | 364 kts | 237° |
| 2026-04-27 20:21 | -22.67620 | -42.26727 | 17265 ft | 361 kts | 237° |
| 2026-04-27 20:21 | -22.69082 | -42.28933 | 16791 ft | 359 kts | 237° |
| 2026-04-27 20:21 | -22.70525 | -42.31113 | 16318 ft | 356 kts | 237° |
| 2026-04-27 20:22 | -22.71964 | -42.33287 | 15842 ft | 354 kts | 237° |
| 2026-04-27 20:22 | -22.73405 | -42.35466 | 15373 ft | 352 kts | 237° |
| 2026-04-27 20:22 | -22.74807 | -42.37587 | 14905 ft | 350 kts | 237° |
| 2026-04-27 20:22 | -22.76227 | -42.39734 | 14450 ft | 349 kts | 237° |
| 2026-04-27 20:23 | -22.77635 | -42.41865 | 13984 ft | 347 kts | 237° |
| 2026-04-27 20:23 | -22.79032 | -42.43980 | 13517 ft | 345 kts | 237° |
| 2026-04-27 20:23 | -22.80429 | -42.46096 | 13065 ft | 343 kts | 237° |
| 2026-04-27 20:23 | -22.81806 | -42.48183 | 12600 ft | 341 kts | 237° |
| 2026-04-27 20:24 | -22.83177 | -42.50261 | 12145 ft | 338 kts | 237° |
| 2026-04-27 20:24 | -22.84539 | -42.52327 | 11763 ft | 335 kts | 237° |
| 2026-04-27 20:24 | -22.85883 | -42.54367 | 11319 ft | 329 kts | 236° |
| 2026-04-27 20:24 | -22.87189 | -42.56348 | 10873 ft | 320 kts | 236° |
| 2026-04-27 20:25 | -22.88466 | -42.58286 | 10473 ft | 312 kts | 236° |
| 2026-04-27 20:25 | -22.89710 | -42.60176 | 10060 ft | 305 kts | 236° |
| 2026-04-27 20:25 | -22.90928 | -42.62027 | 9647 ft | 298 kts | 236° |
| 2026-04-27 20:25 | -22.92130 | -42.63853 | 9252 ft | 291 kts | 236° |
| 2026-04-27 20:26 | -22.93287 | -42.65614 | 8877 ft | 286 kts | 236° |
| 2026-04-27 20:26 | -22.94434 | -42.67358 | 8504 ft | 284 kts | 236° |
| 2026-04-27 20:26 | -22.95578 | -42.69099 | 8129 ft | 284 kts | 236° |
| 2026-04-27 20:26 | -22.96731 | -42.70853 | 7747 ft | 284 kts | 236° |
| 2026-04-27 20:27 | -22.97875 | -42.72596 | 7362 ft | 283 kts | 236° |
| 2026-04-27 20:27 | -22.99002 | -42.74312 | 7001 ft | 281 kts | 236° |
| 2026-04-27 20:27 | -23.00142 | -42.76048 | 6623 ft | 280 kts | 236° |
| 2026-04-27 20:27 | -23.01262 | -42.77756 | 6254 ft | 278 kts | 236° |
| 2026-04-27 20:28 | -23.02342 | -42.79472 | 5877 ft | 276 kts | 245° |
| 2026-04-27 20:28 | -23.02669 | -42.81475 | 5556 ft | 272 kts | 280° |
| 2026-04-27 20:28 | -23.02467 | -42.82284 | 5557 ft | 270 kts | 294° |
| 2026-04-27 20:28 | -23.01824 | -42.83464 | 5610 ft | 269 kts | 305° |
| 2026-04-27 20:29 | -23.00334 | -42.85653 | 5627 ft | 271 kts | 307° |
| 2026-04-27 20:29 | -22.99175 | -42.87277 | 5583 ft | 274 kts | 308° |
| 2026-04-27 20:29 | -22.98002 | -42.88891 | 5283 ft | 268 kts | 308° |
| 2026-04-27 20:29 | -22.96870 | -42.90437 | 4965 ft | 261 kts | 308° |
| 2026-04-27 20:30 | -22.95745 | -42.91966 | 4616 ft | 256 kts | 308° |
| 2026-04-27 20:30 | -22.94648 | -42.93454 | 4335 ft | 249 kts | 309° |
| 2026-04-27 20:30 | -22.93570 | -42.94915 | 4017 ft | 245 kts | 309° |
| 2026-04-27 20:30 | -22.92508 | -42.96358 | 3708 ft | 240 kts | 308° |
| 2026-04-27 20:31 | -22.91540 | -42.97808 | 3459 ft | 235 kts | 306° |
| 2026-04-27 20:31 | -22.90592 | -42.99246 | 3170 ft | 235 kts | 306° |
| 2026-04-27 20:31 | -22.89646 | -43.00680 | 2867 ft | 237 kts | 306° |
| 2026-04-27 20:31 | -22.88680 | -43.02144 | 2552 ft | 236 kts | 306° |
| 2026-04-27 20:32 | -22.87753 | -43.03582 | 2291 ft | 230 kts | 298° |
| 2026-04-27 20:32 | -22.87268 | -43.05166 | 2221 ft | 211 kts | 284° |
| 2026-04-27 20:32 | -22.86911 | -43.06646 | 2115 ft | 199 kts | 284° |
| 2026-04-27 20:32 | -22.86570 | -43.08076 | 1892 ft | 192 kts | 284° |
| 2026-04-27 20:33 | -22.86240 | -43.09461 | 1660 ft | 186 kts | 283° |
| 2026-04-27 20:33 | -22.85932 | -43.10758 | 1536 ft | 171 kts | 283° |
| 2026-04-27 20:33 | -22.85855 | -43.12018 | 1283 ft | 163 kts | 266° |
| 2026-04-27 20:33 | -22.85891 | -43.13191 | 1075 ft | 155 kts | 265° |
| 2026-04-27 20:34 | -22.85940 | -43.14340 | 981 ft | 143 kts | 264° |
| 2026-04-27 20:34 | -22.86069 | -43.15322 | 859 ft | 126 kts | 243° |
| 2026-04-27 20:34 | -22.86567 | -43.16064 | 674 ft | 120 kts | 213° |
| 2026-04-27 20:34 | -22.87331 | -43.16399 | 556 ft | 118 kts | 186° |
| 2026-04-27 20:35 | -22.88160 | -43.16431 | 311 ft | 118 kts | 178° |
| 2026-04-27 20:35 | -22.88969 | -43.16393 | 235 ft | 116 kts | 175° |
| 2026-04-27 20:35 | -22.89784 | -43.16357 | 166 ft | 116 kts | 177° |
| 2026-04-27 20:35 | -22.90573 | -43.16313 | 31 ft | 107 kts | 176° |
| 2026-04-27 20:36 | -22.91186 | -43.16275 | 21 ft | 59 kts | 176° |
| 2026-04-27 20:36 | -22.91321 | -43.16277 | 21 ft | 8 kts | 205° |
| 2026-04-27 20:36 | -22.91343 | -43.16333 | 21 ft | 8 kts | 267° |
| 2026-04-27 20:36 | -22.91347 | -43.16399 | 21 ft | 9 kts | 264° |
| 2026-04-27 20:37 | -22.91350 | -43.16428 | 21 ft | 9 kts | 266° |
| 2026-04-27 20:37 | -22.91352 | -43.16480 | 21 ft | 3 kts | 267° |
| 2026-04-27 20:37 | -22.91347 | -43.16500 | 21 ft | 2 kts | 320° |
| 2026-04-27 20:37 | -22.91325 | -43.16505 | 21 ft | 3 kts | 352° |
| 2026-04-27 20:38 | -22.91297 | -43.16509 | 21 ft | 4 kts | 354° |